Time;durP1;ratioP1;P1;durP2;ratioP2;P2;SDS_P1;SDS_P2;PMS_P1;PMS_P2;Temp;Humidity;BMP_temperature;BMP_pressure;BME280_temperature;BME280_humidity;BME280_pressure;Samples;Min_cycle;Max_cycle;Signal;HPM_P1;HPM_P2
2023/09/05 00:01:57;;;;;;;6.32;3.67;;;18.90;99.90;;;;;;6216843;23;20025;-76
2023/09/05 00:04:24;;;;;;;7.15;3.35;;;18.90;99.90;;;;;;6209301;23;20357;-74
2023/09/05 00:06:53;;;;;;;6.85;2.97;;;18.90;99.90;;;;;;6221808;23;20027;-75
2023/09/05 00:09:20;;;;;;;3.90;2.75;;;18.90;99.90;;;;;;6222098;23;20016;-75
2023/09/05 00:11:48;;;;;;;7.57;3.22;;;18.90;99.90;;;;;;6184350;23;20326;-75
2023/09/05 00:14:18;;;;;;;7.65;3.28;;;18.90;99.90;;;;;;6184220;23;20021;-76
2023/09/05 00:16:45;;;;;;;5.13;3.13;;;19.00;99.90;;;;;;6218220;23;20330;-74
2023/09/05 00:19:13;;;;;;;5.72;3.33;;;19.00;99.90;;;;;;6219021;23;20017;-75
2023/09/05 00:21:40;;;;;;;7.18;3.55;;;19.00;99.90;;;;;;6223018;23;20013;-74
2023/09/05 00:24:32;;;;;;;5.85;3.42;;;18.90;99.90;;;;;;6211456;23;20388;-75
2023/09/05 00:27:00;;;;;;;6.50;3.35;;;18.80;99.90;;;;;;6212050;23;20040;-73
2023/09/05 00:29:30;;;;;;;3.75;2.90;;;18.70;99.90;;;;;;6184237;23;20025;-74
2023/09/05 00:31:59;;;;;;;5.18;3.33;;;18.70;99.90;;;;;;6185087;23;20025;-74
2023/09/05 00:34:28;;;;;;;4.88;3.20;;;18.70;99.90;;;;;;6218762;23;20020;-74
2023/09/05 00:36:55;;;;;;;8.95;3.50;;;18.70;99.90;;;;;;6222217;23;20016;-76
2023/09/05 00:39:23;;;;;;;6.93;3.60;;;18.60;99.90;;;;;;6187055;23;20252;-74
2023/09/05 00:41:51;;;;;;;7.75;3.90;;;18.60;99.90;;;;;;6212357;23;20024;-75
2023/09/05 00:44:19;;;;;;;5.68;3.78;;;18.60;99.90;;;;;;6184646;23;20024;-75
2023/09/05 00:46:47;;;;;;;4.60;3.70;;;18.70;99.90;;;;;;6187650;23;20028;-74
2023/09/05 00:49:16;;;;;;;6.80;3.78;;;18.60;99.90;;;;;;6190442;23;20027;-74
2023/09/05 00:51:45;;;;;;;5.57;3.55;;;18.60;99.90;;;;;;6190708;23;20032;-75
2023/09/05 00:54:13;;;;;;;4.78;3.20;;;18.60;99.90;;;;;;6191032;23;20027;-76
2023/09/05 00:56:41;;;;;;;5.38;3.55;;;18.70;99.90;;;;;;6221251;23;20025;-76
2023/09/05 00:59:10;;;;;;;5.47;3.30;;;18.80;99.90;;;;;;6221409;23;20021;-75
2023/09/05 01:01:38;;;;;;;6.32;3.40;;;18.80;99.90;;;;;;6189468;23;20343;-74
2023/09/05 01:04:05;;;;;;;4.07;3.53;;;18.80;99.90;;;;;;6189084;23;20024;-75
2023/09/05 01:06:41;;;;;;;7.22;3.60;;;18.70;99.90;;;;;;6190080;23;20453;-75
2023/09/05 01:09:13;;;;;;;;;;;18.70;99.90;;;;;;6185943;23;20035;-77
2023/09/05 01:11:42;;;;;;;5.65;3.63;;;18.60;99.90;;;;;;6186087;23;19966;-75
2023/09/05 01:14:11;;;;;;;6.43;3.67;;;18.50;99.90;;;;;;6216821;23;20017;-75
2023/09/05 01:16:45;;;;;;;7.53;3.75;;;18.40;99.90;;;;;;6186586;23;20025;-75
2023/09/05 01:19:16;;;;;;;6.05;3.90;;;18.30;99.90;;;;;;6186780;23;20032;-75
2023/09/05 01:21:55;;;;;;;7.38;3.90;;;18.20;99.90;;;;;;6223599;23;20017;-74
2023/09/05 01:24:24;;;;;;;5.93;3.67;;;18.10;99.90;;;;;;6212704;23;20023;-74
2023/09/05 01:26:52;;;;;;;5.32;3.50;;;18.10;99.90;;;;;;6186320;23;20028;-74
2023/09/05 01:29:30;;;;;;;5.43;3.85;;;18.10;99.90;;;;;;6192295;23;20020;-75
2023/09/05 01:31:59;;;;;;;5.40;3.95;;;18.10;99.90;;;;;;6189960;23;20024;-75
2023/09/05 01:34:27;;;;;;;7.10;4.63;;;17.90;99.90;;;;;;6217729;23;20545;-75
2023/09/05 01:36:54;;;;;;;9.63;5.30;;;17.80;99.90;;;;;;6197705;23;20043;-74
2023/09/05 01:39:23;;;;;;;7.13;3.88;;;17.80;99.90;;;;;;6237259;23;20012;-74
2023/09/05 01:41:51;;;;;;;5.82;4.10;;;17.70;99.90;;;;;;6217829;23;20020;-75
2023/09/05 01:44:18;;;;;;;8.23;3.70;;;17.60;99.90;;;;;;6188465;23;20322;-75
2023/09/05 01:46:46;;;;;;;6.63;4.35;;;17.60;99.90;;;;;;6189443;23;20476;-73
2023/09/05 01:49:13;;;;;;;7.43;4.65;;;17.50;99.90;;;;;;6221864;23;20314;-76
2023/09/05 01:51:40;;;;;;;6.15;4.15;;;17.40;99.90;;;;;;6227504;23;20437;-74
2023/09/05 01:54:08;;;;;;;5.72;4.20;;;17.50;99.90;;;;;;6207561;23;20495;-74
2023/09/05 01:56:36;;;;;;;5.13;4.07;;;17.40;99.90;;;;;;6191034;23;20108;-76
2023/09/05 01:59:05;;;;;;;10.13;4.05;;;17.40;99.90;;;;;;6219456;23;20038;-74
2023/09/05 02:01:34;;;;;;;10.68;4.93;;;17.30;99.90;;;;;;6200443;23;20065;-75
2023/09/05 02:04:02;;;;;;;6.43;4.65;;;17.30;99.90;;;;;;6223396;23;20429;-76
2023/09/05 02:06:29;;;;;;;4.95;4.25;;;17.20;99.90;;;;;;6188488;23;20016;-74
2023/09/05 02:08:57;;;;;;;5.88;4.47;;;17.20;99.90;;;;;;6187698;23;20449;-74
2023/09/05 02:11:24;;;;;;;5.47;4.07;;;17.10;99.90;;;;;;6187778;23;20032;-76
2023/09/05 02:13:53;;;;;;;7.57;4.63;;;17.10;99.90;;;;;;6187899;23;20021;-74
2023/09/05 02:16:24;;;;;;;6.22;4.40;;;17.00;99.90;;;;;;6191838;23;20032;-74
2023/09/05 02:18:53;;;;;;;5.95;4.03;;;16.90;99.90;;;;;;6196909;23;20043;-75
2023/09/05 02:21:20;;;;;;;6.57;4.18;;;16.90;99.90;;;;;;6199574;23;20116;-74
2023/09/05 02:23:47;;;;;;;6.28;4.57;;;16.80;99.90;;;;;;6212013;23;20035;-75
2023/09/05 02:26:15;;;;;;;7.05;4.40;;;16.70;99.90;;;;;;6242760;23;20019;-75
2023/09/05 02:28:44;;;;;;;7.57;4.47;;;16.60;99.90;;;;;;6211565;23;20004;-76
2023/09/05 02:31:13;;;;;;;6.20;4.20;;;16.60;99.90;;;;;;6246885;23;20048;-75
2023/09/05 02:33:41;;;;;;;8.50;4.88;;;16.60;99.90;;;;;;6213170;23;19996;-74
2023/09/05 02:36:15;;;;;;;5.78;4.75;;;16.60;99.90;;;;;;6238759;22;20043;-73
2023/09/05 02:38:43;;;;;;;6.65;4.85;;;16.60;99.90;;;;;;6239957;22;20021;-74
2023/09/05 02:41:14;;;;;;;6.80;4.47;;;16.50;99.90;;;;;;6242367;22;20024;-75
2023/09/05 02:43:41;;;;;;;6.65;5.63;;;16.30;99.90;;;;;;6211621;23;20061;-76
2023/09/05 02:46:10;;;;;;;6.10;5.38;;;16.20;99.90;;;;;;6211390;23;20028;-74
2023/09/05 02:48:40;;;;;;;7.75;5.28;;;16.10;99.90;;;;;;6211009;23;20027;-74
2023/09/05 02:51:09;;;;;;;6.82;5.45;;;16.10;99.90;;;;;;6237221;23;20012;-74
2023/09/05 02:53:37;;;;;;;7.30;5.72;;;16.10;99.90;;;;;;6193691;23;20019;-74
2023/09/05 02:56:05;;;;;;;6.05;4.93;;;16.10;99.90;;;;;;6189734;23;20032;-74
2023/09/05 02:58:33;;;;;;;6.72;5.57;;;16.10;99.90;;;;;;6184512;23;20021;-73
2023/09/05 03:01:02;;;;;;;7.45;5.70;;;16.20;99.90;;;;;;6185164;23;20354;-74
2023/09/05 03:03:29;;;;;;;9.07;5.60;;;16.00;99.90;;;;;;6222441;23;20012;-74
2023/09/05 03:05:58;;;;;;;8.35;5.60;;;15.80;99.90;;;;;;6185324;23;20028;-74
2023/09/05 03:08:26;;;;;;;10.60;5.85;;;15.80;99.90;;;;;;6184297;23;20029;-74
2023/09/05 03:10:54;;;;;;;8.45;6.18;;;15.70;99.90;;;;;;6217403;23;20120;-74
2023/09/05 03:13:22;;;;;;;7.07;5.80;;;15.70;99.90;;;;;;6185083;23;20023;-73
2023/09/05 03:15:52;;;;;;;7.50;5.80;;;15.70;99.90;;;;;;6185560;23;20017;-75
2023/09/05 03:18:25;;;;;;;8.52;5.65;;;15.70;99.90;;;;;;6184954;23;20103;-73
2023/09/05 03:20:52;;;;;;;7.10;5.60;;;15.60;99.90;;;;;;6185145;23;20469;-74
2023/09/05 03:23:21;;;;;;;7.28;5.75;;;15.40;99.90;;;;;;6184171;23;20612;-74
2023/09/05 03:25:49;;;;;;;10.43;7.20;;;15.40;99.90;;;;;;6185129;23;20024;-75
2023/09/05 03:28:16;;;;;;;10.88;5.97;;;15.30;99.90;;;;;;6220060;23;20345;-74
2023/09/05 03:30:46;;;;;;;7.00;5.63;;;15.30;99.90;;;;;;6187344;23;20017;-74
2023/09/05 03:33:16;;;;;;;9.38;5.70;;;15.40;99.90;;;;;;6198403;22;20051;-78
2023/09/05 03:35:44;;;;;;;7.93;5.35;;;15.60;99.90;;;;;;6243185;22;20011;-76
2023/09/05 03:38:11;;;;;;;7.53;5.55;;;15.50;99.90;;;;;;6213885;22;20009;-76
2023/09/05 03:40:40;;;;;;;6.95;5.50;;;15.60;99.90;;;;;;6194448;23;20013;-74
2023/09/05 03:43:07;;;;;;;9.25;5.85;;;15.50;99.90;;;;;;6194452;23;20024;-75
2023/09/05 03:45:35;;;;;;;8.02;6.55;;;15.40;99.90;;;;;;6235498;23;20012;-74
2023/09/05 03:48:02;;;;;;;10.40;7.15;;;15.30;99.90;;;;;;6186186;23;20031;-75
2023/09/05 03:50:30;;;;;;;8.55;7.13;;;15.30;99.90;;;;;;6216687;23;20051;-75
2023/09/05 03:52:58;;;;;;;9.27;7.72;;;15.30;99.90;;;;;;6218798;23;20017;-74
2023/09/05 03:55:26;;;;;;;8.30;6.55;;;15.30;99.90;;;;;;6220952;23;20043;-74
2023/09/05 03:57:55;;;;;;;10.20;7.07;;;15.20;99.90;;;;;;6185829;23;20314;-74
2023/09/05 04:00:22;;;;;;;9.63;6.70;;;15.00;99.90;;;;;;6222980;23;20028;-75
2023/09/05 04:02:49;;;;;;;9.73;7.28;;;14.80;99.90;;;;;;6185426;23;20024;-76
2023/09/05 04:05:17;;;;;;;9.18;7.40;;;14.70;99.90;;;;;;6185919;23;20562;-75
2023/09/05 04:07:44;;;;;;;10.23;7.00;;;14.70;99.90;;;;;;6217592;23;20480;-75
2023/09/05 04:10:12;;;;;;;7.93;6.65;;;14.70;99.90;;;;;;6184904;23;20024;-74
2023/09/05 04:12:39;;;;;;;10.45;7.45;;;14.70;99.90;;;;;;6186344;23;20052;-74
2023/09/05 04:15:10;;;;;;;9.68;6.95;;;14.90;99.90;;;;;;6212465;23;20412;-74
2023/09/05 04:17:40;;;;;;;10.55;6.70;;;15.00;99.90;;;;;;6213685;23;20353;-73
2023/09/05 04:20:08;;;;;;;8.05;6.40;;;14.90;99.90;;;;;;6185405;23;20047;-74
2023/09/05 04:22:37;;;;;;;7.63;6.03;;;14.90;99.90;;;;;;6186274;23;20013;-76
2023/09/05 04:25:04;;;;;;;8.15;6.43;;;14.90;99.90;;;;;;6212625;22;20495;-78
2023/09/05 04:27:32;;;;;;;10.65;6.43;;;14.90;99.90;;;;;;6186683;23;20021;-78
2023/09/05 04:30:00;;;;;;;10.40;7.18;;;14.90;99.90;;;;;;6186276;23;20361;-77
2023/09/05 04:32:30;;;;;;;8.80;6.88;;;14.90;99.90;;;;;;6211104;23;20020;-78
2023/09/05 04:35:00;;;;;;;8.25;7.13;;;14.90;99.90;;;;;;6187638;23;20027;-77
2023/09/05 04:37:29;;;;;;;14.38;8.52;;;15.00;99.90;;;;;;6186146;23;20037;-77
2023/09/05 04:40:01;;;;;;;9.98;7.72;;;14.90;99.90;;;;;;6185747;23;20112;-78
2023/09/05 04:42:30;;;;;;;32.47;10.25;;;14.90;99.90;;;;;;6186564;23;20059;-79
2023/09/05 04:44:57;;;;;;;7.70;6.25;;;15.00;99.90;;;;;;6186981;23;20056;-76
2023/09/05 04:47:25;;;;;;;9.05;6.65;;;15.10;99.90;;;;;;6186604;23;20030;-77
2023/09/05 04:49:55;;;;;;;7.70;6.70;;;15.10;99.90;;;;;;6186770;23;20465;-77
2023/09/05 04:52:26;;;;;;;10.80;6.93;;;15.20;99.90;;;;;;6187137;23;20357;-79
2023/09/05 04:54:54;;;;;;;9.15;6.90;;;15.30;99.90;;;;;;6222755;23;20071;-77
2023/09/05 04:57:22;;;;;;;9.30;7.03;;;15.40;99.90;;;;;;6187570;23;20013;-79
2023/09/05 04:59:50;;;;;;;10.75;8.30;;;15.40;99.90;;;;;;6185193;23;20021;-77
2023/09/05 05:02:18;;;;;;;13.55;7.35;;;15.40;99.90;;;;;;6188154;23;20716;-77
2023/09/05 05:04:46;;;;;;;9.95;7.78;;;15.40;99.90;;;;;;6186636;23;20028;-75
2023/09/05 05:07:14;;;;;;;15.32;8.25;;;15.40;99.90;;;;;;6185685;23;20099;-78
2023/09/05 05:09:44;;;;;;;12.38;9.02;;;15.40;99.90;;;;;;6185952;23;20034;-77
2023/09/05 05:12:11;;;;;;;11.70;7.82;;;15.50;99.90;;;;;;6185623;23;20107;-76
2023/09/05 05:14:38;;;;;;;9.63;6.95;;;15.60;99.90;;;;;;6185724;23;20024;-79
2023/09/05 05:17:06;;;;;;;17.40;8.82;;;15.70;99.90;;;;;;6186151;23;20029;-78
2023/09/05 05:19:33;;;;;;;9.93;7.22;;;15.80;99.90;;;;;;6185772;23;20024;-77
2023/09/05 05:22:01;;;;;;;9.52;7.20;;;15.90;99.90;;;;;;6187270;23;20025;-78
2023/09/05 05:24:31;;;;;;;12.80;9.57;;;15.90;99.90;;;;;;6188891;23;20024;-76
2023/09/05 05:30:40;;;;;;;12.95;6.97;;;16.20;99.90;;;;;;6113186;23;20331;-77
2023/09/05 05:33:08;;;;;;;10.63;7.45;;;16.50;99.90;;;;;;6191580;23;20021;-78
2023/09/05 05:35:36;;;;;;;10.77;7.43;;;16.80;99.90;;;;;;6189136;23;20027;-78
2023/09/05 05:38:03;;;;;;;12.85;7.93;;;17.00;99.90;;;;;;6187700;23;20035;-79
2023/09/05 05:40:32;;;;;;;11.13;7.57;;;17.20;99.90;;;;;;6184848;23;20036;-78
2023/09/05 05:43:00;;;;;;;9.25;7.05;;;17.50;99.90;;;;;;6184529;23;20043;-80
2023/09/05 05:45:28;;;;;;;15.02;8.70;;;17.70;99.90;;;;;;6185869;23;20059;-81
2023/09/05 05:47:57;;;;;;;15.05;8.63;;;18.00;99.90;;;;;;6184795;23;20047;-78
2023/09/05 05:50:24;;;;;;;10.30;6.80;;;18.00;99.90;;;;;;6185932;23;20024;-79
2023/09/05 05:52:53;;;;;;;10.75;7.68;;;18.10;99.90;;;;;;6184532;23;20139;-78
2023/09/05 05:55:20;;;;;;;12.18;7.22;;;18.20;99.90;;;;;;6220775;23;20020;-78
2023/09/05 05:57:49;;;;;;;9.57;6.13;;;18.50;99.90;;;;;;6184512;23;20023;-77
2023/09/05 06:00:24;;;;;;;15.48;8.95;;;18.70;99.90;;;;;;6185999;23;20044;-78
2023/09/05 06:02:52;;;;;;;11.30;6.90;;;18.70;99.90;;;;;;6186873;23;20764;-77
2023/09/05 06:05:19;;;;;;;8.02;5.68;;;18.60;99.90;;;;;;6185694;23;20024;-77
2023/09/05 06:07:47;;;;;;;9.02;5.45;;;18.30;99.90;;;;;;6183689;23;20082;-78
2023/09/05 06:10:14;;;;;;;12.68;6.15;;;18.10;99.90;;;;;;6186052;23;20064;-79
2023/09/05 06:12:42;;;;;;;8.52;5.63;;;17.90;99.90;;;;;;6225500;23;20374;-77
2023/09/05 06:15:16;;;;;;;7.60;5.50;;;17.80;99.90;;;;;;6194443;23;20036;-80
2023/09/05 06:17:45;;;;;;;;;;;17.70;99.90;;;;;;6192228;23;20397;-78
2023/09/05 06:20:13;;;;;;;8.82;4.93;;;17.70;99.90;;;;;;6190631;23;20000;-79
2023/09/05 06:22:47;;;;;;;7.43;4.93;;;17.70;99.90;;;;;;6187887;23;20078;-76
2023/09/05 06:25:24;;;;;;;10.32;5.68;;;17.70;99.90;;;;;;6180672;23;20040;-79
2023/09/05 06:28:22;;;;;;;11.35;7.20;;;17.80;99.90;;;;;;6181711;23;20020;-79
2023/09/05 06:30:59;;;;;;;8.95;5.88;;;18.00;99.90;;;;;;6180819;23;20099;-79
2023/09/05 06:33:28;;;;;;;10.60;5.10;;;18.10;99.90;;;;;;6183446;23;20048;-80
2023/09/05 06:35:55;;;;;;;8.20;5.45;;;18.10;99.90;;;;;;6184596;23;20025;-77
2023/09/05 06:38:23;;;;;;;12.43;7.85;;;18.20;99.90;;;;;;6180173;23;20346;-77
2023/09/05 06:40:51;;;;;;;20.52;8.15;;;18.40;99.90;;;;;;6178850;23;20085;-78
2023/09/05 06:43:18;;;;;;;14.75;10.35;;;18.50;99.90;;;;;;6179072;23;20029;-81
2023/09/05 06:45:46;;;;;;;10.93;8.07;;;18.70;99.90;;;;;;6179469;23;20375;-79
2023/09/05 06:48:15;;;;;;;14.23;8.82;;;18.80;99.90;;;;;;6178693;23;20104;-78
2023/09/05 06:50:42;;;;;;;13.73;8.43;;;18.90;99.90;;;;;;6178627;23;20036;-80
2023/09/05 06:53:10;;;;;;;11.00;6.68;;;19.10;99.90;;;;;;6179633;23;20021;-78
2023/09/05 06:55:38;;;;;;;12.25;6.50;;;19.30;99.90;;;;;;6182764;23;20029;-80
2023/09/05 06:58:07;;;;;;;9.40;6.70;;;19.50;99.90;;;;;;6180074;23;20027;-79
2023/09/05 07:00:35;;;;;;;10.65;6.63;;;19.70;99.90;;;;;;6192477;23;20079;-80
2023/09/05 07:03:02;;;;;;;14.05;7.75;;;20.10;99.90;;;;;;6180220;23;20027;-77
2023/09/05 07:05:32;;;;;;;8.32;6.05;;;20.50;99.90;;;;;;6182081;23;20120;-78
2023/09/05 07:08:00;;;;;;;16.30;11.63;;;20.70;99.90;;;;;;6178164;23;20027;-78
2023/09/05 07:10:27;;;;;;;12.02;6.90;;;20.90;99.90;;;;;;6188243;23;20031;-79
2023/09/05 07:12:54;;;;;;;12.25;7.65;;;20.70;99.90;;;;;;6179265;23;20056;-81
2023/09/05 07:15:22;;;;;;;10.90;6.20;;;20.60;99.90;;;;;;6179891;23;20036;-80
2023/09/05 07:17:51;;;;;;;9.57;6.18;;;20.50;99.90;;;;;;6178887;23;20075;-80
2023/09/05 07:20:19;;;;;;;13.65;8.27;;;20.40;99.90;;;;;;6179500;23;20450;-78
2023/09/05 07:22:48;;;;;;;7.90;5.70;;;20.20;99.90;;;;;;6202584;23;20013;-78
2023/09/05 07:25:15;;;;;;;13.23;6.22;;;20.30;99.90;;;;;;6242258;22;20008;-79
2023/09/05 07:27:43;;;;;;;9.88;6.05;;;20.40;99.90;;;;;;6247795;22;20007;-79
2023/09/05 07:30:11;;;;;;;9.32;6.45;;;20.70;99.90;;;;;;6201925;23;20362;-80
2023/09/05 07:32:41;;;;;;;19.02;12.52;;;21.00;99.90;;;;;;6186758;23;20035;-80
2023/09/05 07:35:09;;;;;;;10.15;6.28;;;21.20;99.90;;;;;;6187017;23;20036;-81
2023/09/05 07:37:38;;;;;;;8.48;4.93;;;21.30;99.90;;;;;;6189560;23;20023;-80
2023/09/05 07:40:08;;;;;;;10.65;5.55;;;21.30;99.90;;;;;;6190206;23;20016;-79
2023/09/05 07:42:37;;;;;;;8.10;5.20;;;21.30;99.90;;;;;;6187444;23;20040;-77
2023/09/05 07:45:06;;;;;;;7.75;5.05;;;21.10;99.90;;;;;;6184372;23;20029;-80
2023/09/05 07:47:33;;;;;;;14.45;9.07;;;20.80;99.90;;;;;;6184323;23;20016;-81
2023/09/05 07:50:02;;;;;;;8.38;5.40;;;20.70;99.90;;;;;;6184175;23;20032;-80
2023/09/05 07:52:29;;;;;;;7.20;5.05;;;20.80;99.90;;;;;;6183272;23;20024;-81
2023/09/05 07:54:57;;;;;;;10.00;5.28;;;21.00;99.90;;;;;;6183640;23;20097;-80
2023/09/05 07:57:25;;;;;;;11.75;6.50;;;21.60;99.90;;;;;;6184434;23;20095;-80
2023/09/05 07:59:53;;;;;;;8.25;5.50;;;22.10;99.90;;;;;;6184170;23;20063;-79
2023/09/05 08:02:21;;;;;;;10.30;6.25;;;22.30;99.90;;;;;;6184363;23;20033;-78
2023/09/05 08:04:48;;;;;;;8.88;5.68;;;22.40;99.90;;;;;;6184230;23;20094;-81
2023/09/05 08:07:15;;;;;;;14.57;6.90;;;22.30;99.90;;;;;;6184126;23;20028;-80
2023/09/05 08:09:44;;;;;;;8.02;5.93;;;22.10;99.90;;;;;;6222086;23;20044;-80
2023/09/05 08:12:11;;;;;;;16.67;10.63;;;22.00;99.90;;;;;;6148222;23;20408;-79
2023/09/05 08:14:40;;;;;;;6.90;5.45;;;21.90;99.90;;;;;;6184888;23;20023;-81
2023/09/05 08:17:09;;;;;;;10.23;7.07;;;21.70;99.90;;;;;;6184182;23;20036;-80
2023/09/05 08:19:36;;;;;;;11.75;6.95;;;21.80;99.90;;;;;;6184781;23;20116;-80
2023/09/05 08:22:09;;;;;;;11.02;8.13;;;22.00;99.90;;;;;;6219369;23;20020;-77
2023/09/05 08:24:37;;;;;;;9.98;7.97;;;21.60;99.90;;;;;;6184939;23;20107;-78
2023/09/05 08:27:06;;;;;;;9.68;8.18;;;21.60;99.90;;;;;;6183905;23;20028;-78
2023/09/05 08:29:36;;;;;;;11.57;8.60;;;21.60;99.90;;;;;;6213449;23;20400;-80
2023/09/05 08:32:06;;;;;;;11.38;9.32;;;21.50;99.90;;;;;;6183780;23;20047;-79
2023/09/05 08:34:33;;;;;;;12.05;8.88;;;21.40;99.90;;;;;;6217853;23;20052;-79
2023/09/05 08:37:02;;;;;;;13.68;10.57;;;21.30;99.90;;;;;;6182824;23;20020;-79
2023/09/05 08:39:32;;;;;;;15.18;10.43;;;21.40;99.90;;;;;;6221482;23;20088;-81
2023/09/05 08:42:01;;;;;;;12.75;8.65;;;21.30;99.90;;;;;;6184668;23;20059;-79
2023/09/05 08:44:28;;;;;;;10.50;8.05;;;21.30;99.90;;;;;;6183814;23;20027;-78
2023/09/05 08:46:56;;;;;;;10.43;7.82;;;21.40;99.90;;;;;;6183299;23;20096;-80
2023/09/05 08:49:25;;;;;;;9.38;7.43;;;21.60;99.90;;;;;;6169789;23;20024;-79
2023/09/05 08:51:54;;;;;;;9.57;6.85;;;22.00;99.90;;;;;;6183653;23;20095;-78
2023/09/05 08:54:24;;;;;;;11.50;6.78;;;22.40;99.90;;;;;;6184043;23;20020;-79
2023/09/05 08:56:52;;;;;;;11.80;7.88;;;22.70;99.90;;;;;;6186595;23;20028;-79
2023/09/05 08:59:20;;;;;;;11.68;8.32;;;23.10;99.90;;;;;;6183874;23;20388;-77
2023/09/05 09:01:48;;;;;;;20.55;13.45;;;23.30;99.90;;;;;;6183272;23;20072;-80
2023/09/05 09:04:16;;;;;;;9.23;5.65;;;23.50;99.90;;;;;;6183748;23;20028;-80
2023/09/05 09:06:53;;;;;;;7.63;5.10;;;23.10;99.90;;;;;;6223525;23;20062;-79
2023/09/05 09:09:38;;;;;;;7.32;5.88;;;22.90;99.90;;;;;;6187749;23;20020;-79
2023/09/05 09:12:06;;;;;;;8.50;6.15;;;23.00;99.90;;;;;;6185730;23;20108;-79
2023/09/05 09:14:34;;;;;;;8.50;6.63;;;23.10;99.90;;;;;;6221511;23;20020;-80
2023/09/05 09:17:02;;;;;;;8.45;5.72;;;23.00;99.90;;;;;;6188842;23;20080;-79
2023/09/05 09:19:30;;;;;;;8.48;6.05;;;23.10;99.90;;;;;;6186452;23;20048;-77
2023/09/05 09:22:03;;;;;;;10.90;6.22;;;23.00;99.90;;;;;;6186020;23;20040;-79
2023/09/05 09:24:35;;;;;;;7.78;6.45;;;23.00;99.90;;;;;;6181257;23;20108;-79
2023/09/05 09:27:04;;;;;;;7.70;5.88;;;22.90;99.90;;;;;;6185718;23;20048;-80
2023/09/05 09:29:31;;;;;;;8.38;5.65;;;22.80;99.90;;;;;;6187339;23;20021;-78
2023/09/05 09:32:06;;;;;;;9.77;7.05;;;22.80;99.90;;;;;;6186431;23;20088;-80
2023/09/05 09:34:36;;;;;;;9.73;6.93;;;22.80;99.90;;;;;;6189151;23;20025;-78
2023/09/05 09:37:05;;;;;;;10.52;7.45;;;22.90;99.90;;;;;;6190527;23;20067;-77
2023/09/05 09:39:32;;;;;;;8.52;5.65;;;22.90;99.90;;;;;;6181182;23;20037;-80
2023/09/05 09:42:00;;;;;;;14.25;6.20;;;23.00;99.90;;;;;;6180518;23;20017;-79
2023/09/05 09:44:29;;;;;;;8.75;6.15;;;23.00;99.90;;;;;;6180715;23;20032;-79
2023/09/05 09:46:57;;;;;;;9.27;7.22;;;23.10;99.90;;;;;;6180241;23;20040;-80
2023/09/05 09:49:27;;;;;;;9.68;6.20;;;23.30;99.90;;;;;;6179481;23;20044;-80
2023/09/05 09:51:55;;;;;;;9.15;6.25;;;23.70;99.90;;;;;;6180464;23;20055;-80
2023/09/05 09:54:31;;;;;;;10.50;7.40;;;24.10;99.90;;;;;;6181334;23;20096;-81
2023/09/05 09:57:05;;;;;;;7.93;5.85;;;24.30;99.90;;;;;;6180100;23;20032;-80
2023/09/05 09:59:35;;;;;;;8.25;6.07;;;24.40;99.90;;;;;;6180635;23;20088;-79
2023/09/05 10:02:07;;;;;;;7.22;5.68;;;24.40;99.90;;;;;;6182913;23;20021;-79
2023/09/05 10:04:35;;;;;;;9.93;5.90;;;24.50;99.90;;;;;;6180503;23;20024;-79
2023/09/05 10:07:07;;;;;;;7.50;5.22;;;24.60;99.90;;;;;;6190901;23;20015;-80
2023/09/05 10:09:37;;;;;;;7.97;5.07;;;24.80;99.90;;;;;;6182931;23;20027;-78
2023/09/05 10:12:07;;;;;;;9.10;6.03;;;24.70;99.90;;;;;;6181085;23;20017;-80
2023/09/05 10:14:38;;;;;;;8.25;6.18;;;24.70;99.90;;;;;;6180459;23;20041;-79
2023/09/05 10:17:06;;;;;;;7.80;5.50;;;24.70;99.90;;;;;;6179663;23;20028;-81
2023/09/05 10:19:34;;;;;;;8.88;4.95;;;24.60;99.90;;;;;;6178398;23;20036;-79
2023/09/05 10:22:04;;;;;;;8.15;4.78;;;24.40;99.90;;;;;;6179095;23;20137;-80
2023/09/05 10:24:34;;;;;;;8.73;6.25;;;24.30;99.90;;;;;;6179961;23;20025;-81
2023/09/05 10:27:03;;;;;;;10.88;6.70;;;24.20;99.90;;;;;;6199489;23;20028;-75
2023/09/05 10:29:35;;;;;;;9.35;6.22;;;23.90;99.90;;;;;;6218571;23;20031;-75
2023/09/05 10:32:04;;;;;;;10.00;7.78;;;23.70;99.90;;;;;;6219635;23;20044;-75
2023/09/05 10:34:58;;;;;;;14.02;7.90;;;23.60;99.90;;;;;;6221983;23;20021;-74
2023/09/05 10:37:38;;;;;;;16.98;9.98;;;23.50;99.90;;;;;;6222762;23;20016;-75
2023/09/05 10:40:13;;;;;;;13.90;9.70;;;23.30;99.90;;;;;;6188220;23;20012;-74
2023/09/05 10:42:51;;;;;;;13.20;9.10;;;23.10;99.90;;;;;;6226471;23;20019;-75
2023/09/05 10:45:33;;;;;;;14.63;9.00;;;23.00;99.90;;;;;;6215884;23;20051;-73
2023/09/05 10:48:04;;;;;;;18.30;11.00;;;22.80;99.90;;;;;;6187935;23;20132;-75
2023/09/05 10:51:10;;;;;;;13.68;9.48;;;22.70;99.90;;;;;;6219090;23;20055;-75
2023/09/05 10:53:39;;;;;;;16.88;10.70;;;22.70;99.90;;;;;;6188841;23;20070;-76
2023/09/05 10:56:40;;;;;;;18.00;10.20;;;22.60;99.90;;;;;;6228630;23;20036;-75
2023/09/05 10:59:11;;;;;;;15.88;9.52;;;22.70;99.90;;;;;;6106698;23;20472;-74
2023/09/05 11:02:02;;;;;;;11.48;8.57;;;22.70;99.90;;;;;;6105391;23;20027;-73
2023/09/05 11:04:31;;;;;;;11.95;8.90;;;23.00;99.90;;;;;;6110575;23;20026;-76
2023/09/05 11:07:04;;;;;;;16.98;11.25;;;23.20;99.90;;;;;;6105366;23;20093;-75
2023/09/05 11:09:43;;;;;;;15.68;9.05;;;23.10;99.90;;;;;;6102675;23;20086;-74
2023/09/05 11:15:09;;;;;;;11.93;7.65;;;23.70;99.90;;;;;;6092502;23;20046;-74
2023/09/05 11:17:37;;;;;;;15.50;7.40;;;23.90;99.90;;;;;;6092029;23;20037;-75
2023/09/05 11:20:07;;;;;;;9.32;6.38;;;23.80;99.90;;;;;;6096866;23;20649;-75
2023/09/05 11:22:36;;;;;;;10.80;7.32;;;23.80;99.90;;;;;;6098283;23;20101;-75
2023/09/05 11:25:07;;;;;;;12.10;7.40;;;23.90;99.90;;;;;;6101820;23;20029;-75
2023/09/05 11:27:36;;;;;;;10.80;6.82;;;24.10;99.90;;;;;;6102712;23;20050;-75
2023/09/05 11:30:09;;;;;;;9.32;6.47;;;23.80;99.90;;;;;;6082668;23;20057;-74
2023/09/05 11:32:39;;;;;;;5.90;4.32;;;23.80;99.90;;;;;;6095588;23;20469;-75
2023/09/05 11:35:10;;;;;;;4.20;3.53;;;23.50;99.90;;;;;;6180507;23;20035;-75
2023/09/05 11:37:37;;;;;;;6.13;3.85;;;23.40;99.90;;;;;;6188731;23;20025;-75
2023/09/05 11:40:12;;;;;;;7.50;4.43;;;23.30;99.90;;;;;;6191183;23;20488;-75
2023/09/05 11:42:39;;;;;;;6.60;3.60;;;23.10;99.90;;;;;;6181833;23;20017;-76
2023/09/05 11:45:16;;;;;;;5.00;3.55;;;22.90;99.90;;;;;;6183917;23;20281;-75
2023/09/05 11:47:45;;;;;;;6.00;3.42;;;22.70;99.90;;;;;;6180806;23;20033;-75
2023/09/05 11:50:14;;;;;;;7.15;3.70;;;22.80;99.90;;;;;;6186331;23;20020;-77
2023/09/05 11:52:42;;;;;;;7.70;3.60;;;23.00;99.90;;;;;;6188281;23;20017;-75
2023/09/05 11:55:11;;;;;;;5.85;3.88;;;23.30;99.90;;;;;;6181178;23;20025;-76
2023/09/05 11:57:40;;;;;;;7.65;4.00;;;23.60;99.90;;;;;;6192313;23;20017;-76
2023/09/05 12:00:16;;;;;;;7.50;5.10;;;24.10;99.90;;;;;;6181774;23;20024;-76
2023/09/05 12:02:44;;;;;;;8.20;4.90;;;24.50;99.90;;;;;;6181454;23;20025;-75
2023/09/05 12:05:12;;;;;;;6.22;3.63;;;24.50;99.90;;;;;;6186957;23;20031;-75
2023/09/05 12:07:40;;;;;;;4.28;3.70;;;24.30;99.90;;;;;;6205356;23;20017;-76
2023/09/05 12:10:09;;;;;;;6.15;4.50;;;23.80;99.90;;;;;;6204990;23;20411;-76
2023/09/05 12:12:36;;;;;;;6.72;4.55;;;23.50;99.90;;;;;;6194018;23;20124;-76
2023/09/05 12:15:05;;;;;;;6.15;4.43;;;23.40;99.90;;;;;;6181681;23;20095;-74
2023/09/05 12:17:34;;;;;;;6.43;4.30;;;23.30;99.90;;;;;;6180603;23;20095;-76
2023/09/05 12:20:09;;;;;;;6.55;4.80;;;23.20;99.90;;;;;;6181889;23;20029;-76
2023/09/05 12:22:36;;;;;;;7.25;4.90;;;23.40;99.90;;;;;;6184703;23;20021;-75
2023/09/05 12:25:15;;;;;;;8.45;4.95;;;23.70;99.90;;;;;;6183239;23;20025;-76
2023/09/05 12:27:45;;;;;;;6.72;4.40;;;23.90;99.90;;;;;;6218367;23;20057;-77
2023/09/05 12:30:29;;;;;;;9.85;7.80;;;23.80;99.90;;;;;;6184125;23;20096;-76
2023/09/05 12:33:00;;;;;;;7.28;5.53;;;23.90;99.90;;;;;;6212386;23;20028;-77
2023/09/05 12:35:29;;;;;;;5.00;4.45;;;24.00;99.90;;;;;;6215209;23;20089;-76
2023/09/05 12:37:58;;;;;;;10.45;5.65;;;24.10;99.90;;;;;;6184978;23;20040;-77
2023/09/05 12:40:27;;;;;;;7.55;5.72;;;24.30;99.90;;;;;;6220109;23;20029;-74
2023/09/05 12:42:54;;;;;;;5.93;3.88;;;24.40;99.90;;;;;;6177799;23;20020;-76
2023/09/05 12:45:22;;;;;;;7.13;5.40;;;24.30;99.90;;;;;;6218879;23;20032;-75
2023/09/05 12:47:51;;;;;;;8.13;6.00;;;24.20;99.90;;;;;;6217290;23;20052;-75
2023/09/05 12:50:25;;;;;;;5.68;4.88;;;24.30;99.90;;;;;;6218624;23;20039;-77
2023/09/05 12:52:52;;;;;;;5.80;4.10;;;24.10;99.90;;;;;;6187920;23;20028;-78
2023/09/05 12:55:57;;;;;;;6.20;4.38;;;24.20;99.90;;;;;;6203750;23;20021;-75
2023/09/05 12:59:08;;;;;;;6.25;5.03;;;23.80;99.90;;;;;;6191835;23;20653;-75
2023/09/05 13:02:18;;;;;;;6.68;5.03;;;23.60;99.90;;;;;;6181477;23;20020;-77
2023/09/05 13:05:59;;;;;;;6.75;4.75;;;23.80;99.90;;;;;;6069774;23;20065;-82